Flight Track Log - Related Links

Times and Time Zones

All times are in EDT time to prevent confusion due to time zone crossing. See the DAL1116 flight status page for this flight to view local times or setup timezone preferences in your user account.


Time Position Orientation Groundspeed Altitude Reporting Facility
EDT Latitude Longitude Course Direction KTS MPH feet Rate Location/Type
Sun 07:15:45 PM 36.0753 -115.1844 90° East 180 207 3,200  Level Los Angeles Center
Sun 07:16:52 PM 36.0783 -115.2686 273° West 248 285 5,600 2,065 Climbing Los Angeles Center
Sun 07:17:18 PM 36.0914 -115.2847 315° West 223 257 6,400 2,659 Climbing Los Angeles Center
Sun 07:18:00 PM 36.1834 -115.0443 90° East  Level FlightAware Approximate
Sun 07:18:20 PM 36.1681 -115.2664 11° North 252 290 9,500  Level Los Angeles Center
Sun 07:19:00 PM 36.1838 -114.8802 80° East  Level FlightAware Approximate
Sun 07:19:22 PM 36.1967 -115.1728 69° East 287 330 11,000  Level Los Angeles Center
Sun 07:20:00 PM 36.1960 -114.7181 96° East  Level FlightAware Approximate
Sun 07:20:24 PM 36.1978 -115.0489 89° East 350 403 13,000  Level Los Angeles Center
Sun 07:21:00 PM 36.1833 -114.5547 90° East  Level FlightAware Approximate
Sun 07:21:26 PM 36.1986 -114.9147 90° East 380 437 14,500  Level Los Angeles Center
Sun 07:22:28 PM 36.1994 -114.7675 90° East 416 479 16,600 2,032 Climbing Los Angeles Center
Sun 07:23:30 PM 36.1989 -114.6142 90° East 438 504 18,700 2,129 Climbing Los Angeles Center
Sun 07:24:32 PM 36.1956 -114.4247 91° East 456 525 21,000 1,935 Climbing Los Angeles Center
Sun 07:25:34 PM 36.1953 -114.2611 90° East 468 539 22,700 1,536 Climbing Los Angeles Center
Sun 07:26:37 PM 36.2347 -114.1050 73° East 477 549 24,200 1,392 Climbing Los Angeles Center
Sun 07:27:39 PM 36.2817 -113.9475 70° East 486 559 25,600 1,306 Climbing Los Angeles Center
Sun 07:28:41 PM 36.3297 -113.7872 70° East 494 568 26,900 1,403 Climbing Los Angeles Center
Sun 07:29:43 PM 36.3778 -113.6264 70° East 498 573 28,500 1,597 Climbing Los Angeles Center
Sun 07:30:45 PM 36.4339 -113.4342 70° East 495 570 30,200 1,210 Climbing Los Angeles Center
Sun 07:31:47 PM 36.4819 -113.2744 69° East 495 570 31,000 387 Climbing Los Angeles Center
Sun 07:32:49 PM 36.5264 -113.1178 71° East 495 570 31,000  Level Los Angeles Center
Sun 07:33:51 PM 36.5731 -112.9589 70° East 492 566 31,000  Level Los Angeles Center
Sun 07:34:53 PM 36.6175 -112.7994 71° East 492 566 31,000  Level Los Angeles Center
Sun 07:35:55 PM 36.6733 -112.6078 70° East 493 567 31,000 339 Level Los Angeles Center
Sun 07:36:57 PM 36.7194 -112.4442 71° East 501 577 31,700 919 Climbing Los Angeles Center
Sun 07:37:59 PM 36.7644 -112.2825 71° East 498 573 32,900 629 Climbing Los Angeles Center
Sun 07:39:01 PM 36.8106 -112.1228 70° East 495 570 33,000 70 Climbing Los Angeles Center
Sun 07:39:25 PM 36.8283 -112.0589 71° East 496 571 33,000  Level Denver Center
Sun 07:40:27 PM 36.8717 -111.8992 71° East 491 565 33,000  Level Denver Center
Sun 07:41:29 PM 36.9275 -111.7053 70° East 495 570 33,000  Level Denver Center
Sun 07:42:31 PM 36.9733 -111.5414 71° East 499 574 33,000  Level Denver Center
Sun 07:43:33 PM 37.0178 -111.3800 71° East 496 571 33,000  Level Denver Center
Sun 07:44:35 PM 37.0583 -111.2197 72° East 491 565 33,000  Level Denver Center
Sun 07:45:37 PM 37.1033 -111.0553 71° East 500 575 33,000  Level Denver Center
Sun 07:46:39 PM 37.1431 -110.8892 73° East 501 577 33,000  Level Denver Center
Sun 07:47:41 PM 37.1856 -110.6867 75° East 501 577 33,000  Level Denver Center
Sun 07:48:43 PM 37.2203 -110.5181 75° East 502 578 33,000  Level Denver Center
Sun 07:49:45 PM 37.2550 -110.3472 76° East 507 583 33,000  Level Denver Center
Sun 07:50:47 PM 37.2889 -110.1786 76° East 511 588 33,000  Level Denver Center
Sun 07:51:49 PM 37.3281 -109.9844 76° East 512 589 33,000  Level Denver Center
Sun 07:52:51 PM 37.3617 -109.8175 76° East 514 592 33,000  Level Denver Center
Sun 07:53:53 PM 37.4000 -109.6233 76° East 512 589 33,000  Level Denver Center
Sun 07:54:55 PM 37.4319 -109.4556 76° East 513 590 33,000  Level Denver Center
Sun 07:55:57 PM 37.4703 -109.2600 76° East 514 592 33,000  Level Denver Center
Sun 07:56:59 PM 37.5025 -109.0917 76° East 517 595 33,000  Level Denver Center
Sun 07:58:01 PM 37.5400 -108.8975 76° East 510 587 33,000  Level Denver Center
Sun 07:59:03 PM 37.5714 -108.7264 77° East 519 597 33,000  Level Denver Center
Sun 08:00:05 PM 37.6039 -108.5589 76° East 516 594 33,000  Level Denver Center
Sun 08:01:06 PM 37.6397 -108.3611 77° East 516 594 33,000  Level Denver Center
Sun 08:02:08 PM 37.6714 -108.1925 77° East 515 593 33,000  Level Denver Center
Sun 08:03:10 PM 37.7075 -107.9953 77° East 515 593 33,000  Level Denver Center
Sun 08:04:12 PM 37.7328 -107.8542 77° East 516 594 33,000  Level Denver Center
Sun 08:05:14 PM 37.7733 -107.6286 77° East 515 593 33,000  Level Denver Center
Sun 08:06:16 PM 37.8036 -107.4572 77° East 520 598 33,000  Level Denver Center
Sun 08:07:18 PM 37.8383 -107.2600 77° East 516 594 33,000  Level Denver Center
Sun 08:08:20 PM 37.8697 -107.0764 78° East 522 601 33,000  Level Denver Center
Sun 08:09:22 PM 37.8992 -106.9072 78° East 518 596 33,000  Level Denver Center
Sun 08:10:23 PM 37.9278 -106.7356 78° East 521 600 33,000  Level Denver Center
Sun 08:11:25 PM 37.9617 -106.5356 78° East 522 601 33,000  Level Denver Center
Sun 08:12:27 PM 37.9917 -106.3547 78° East 520 598 33,000 97 Level Denver Center
Sun 08:13:29 PM 38.0250 -106.1544 78° East 520 598 33,200 726 Climbing Denver Center
Sun 08:14:31 PM 38.0519 -105.9833 79° East 519 597 34,500 919 Climbing Denver Center
Sun 08:15:33 PM 38.0811 -105.8100 78° East 523 602 35,100 1,210 Climbing Denver Center
Sun 08:16:35 PM 38.1139 -105.6125 78° East 513 590 37,000 919 Climbing Denver Center
Sun 08:17:37 PM 38.1383 -105.4472 79° East 500 575 37,000  Level Denver Center
Sun 08:18:39 PM 38.1703 -105.2478 78° East 511 588 37,000  Level Denver Center
Sun 08:19:40 PM 38.1967 -105.0792 79° East 509 586 37,000  Level Denver Center
Sun 08:20:54 PM 38.2267 -104.8864 79° East 501 577 37,000  Level Denver Center
Sun 08:21:57 PM 38.2567 -104.6922 79° East 498 573 37,000 -48 Level Denver Center
Sun 08:22:59 PM 38.2861 -104.4897 79° East 515 593 36,900 -48 Descending Denver Center
Sun 08:24:01 PM 38.3514 -104.3428 60° Northeast 519 597 36,900  Level Denver Center
Sun 08:25:03 PM 38.4575 -104.1786 50° Northeast 512 589 36,900  Level Denver Center
Sun 08:26:05 PM 38.5425 -104.0497 50° Northeast 508 585 36,900  Level Denver Center
Sun 08:27:07 PM 38.6431 -103.8936 50° Northeast 508 585 36,900  Level Denver Center
Sun 08:28:09 PM 38.7297 -103.7611 50° Northeast 505 581 36,900  Level Denver Center
Sun 08:29:11 PM 38.8103 -103.6208 54° Northeast 509 586 36,900  Level Denver Center
Sun 08:30:13 PM 38.8467 -103.4267 76° East 535 616 36,900  Level Denver Center
Sun 08:31:14 PM 38.8683 -103.2725 80° East 529 609 36,900  Level Denver Center
Sun 08:32:17 PM 38.9042 -103.0206 80° East 533 613 36,900  Level Denver Center
Sun 08:33:19 PM 38.9314 -102.8297 80° East 539 620 36,900  Level Denver Center
Sun 08:34:20 PM 38.9525 -102.6772 80° East 535 616 36,900  Level Denver Center
Sun 08:35:23 PM 38.9844 -102.4364 80° East 535 616 36,900  Level Denver Center
Sun 08:36:25 PM 39.0083 -102.2575 80° East 531 611 36,900  Level Denver Center
Sun 08:37:27 PM 39.0311 -102.0822 80° East 522 601 36,900  Level Denver Center
Sun 08:38:29 PM 39.0583 -101.8786 80° East 518 596 36,900  Level Denver Center
Sun 08:39:31 PM 39.0806 -101.7039 81° East 524 603 36,900  Level Denver Center
Sun 08:40:33 PM 39.1078 -101.4975 80° East 525 604 36,900  Level Denver Center
Sun 08:41:35 PM 39.1292 -101.3178 81° East 529 609 36,900  Level Denver Center
Sun 08:42:37 PM 39.1553 -101.1075 81° East 534 615 36,900  Level Denver Center
Sun 08:43:39 PM 39.1772 -100.9281 81° East 533 613 36,900  Level Denver Center
Sun 08:44:41 PM 39.2028 -100.7186 81° East 531 611 36,900  Level Denver Center
Sun 08:45:43 PM 39.2233 -100.5403 81° East 528 608 36,900  Level Denver Center
Sun 08:46:45 PM 39.2475 -100.3339 81° East 525 604 36,900  Level Denver Center
Sun 08:47:47 PM 39.2767 -100.1578 78° East 526 605 36,900  Level Denver Center
Sun 08:48:49 PM 39.3269 -99.9633 71° East 517 595 36,900  Level Denver Center
Sun 08:49:51 PM 39.3692 -99.7939 72° East 517 595 36,900  Level Denver Center
Sun 08:50:53 PM 39.4178 -99.5975 72° East 515 593 36,900  Level Denver Center
Sun 08:51:55 PM 39.4603 -99.4283 72° East 517 595 36,900  Level Denver Center
Sun 08:52:57 PM 39.5067 -99.2367 73° East 514 592 36,900  Level Denver Center
Sun 08:53:58 PM 39.5494 -99.0628 72° East 509 586 36,900  Level Denver Center
Sun 08:55:00 PM 39.5914 -98.8894 73° East 506 582 36,900  Level Denver Center
Sun 08:56:02 PM 39.6333 -98.7153 73° East 508 585 36,900  Level Denver Center
Sun 08:57:04 PM 39.6744 -98.5447 73° East 504 580 36,900  Level Minneapolis Center
Sun 08:58:18 PM 39.7308 -98.3014 73° East 503 579 36,900  Level Minneapolis Center
Sun 08:59:19 PM 39.7714 -98.1303 73° East 499 574 36,900  Level Minneapolis Center
Sun 09:00:21 PM 39.8122 -97.9567 73° East 501 577 36,900  Level Minneapolis Center
Sun 09:01:23 PM 39.8514 -97.7822 74° East 504 580 36,900  Level Minneapolis Center
Sun 09:02:25 PM 39.8914 -97.6092 73° East 503 579 36,900  Level Minneapolis Center
Sun 09:03:26 PM 39.9308 -97.4342 74° East 503 579 36,900  Level Minneapolis Center
Sun 09:04:28 PM 39.9703 -97.2561 74° East 503 579 36,900  Level Minneapolis Center
Sun 09:05:30 PM 40.0094 -97.0814 74° East 504 580 36,900  Level Minneapolis Center
Sun 09:06:31 PM 40.0569 -96.8742 73° East 500 575 36,900  Level Minneapolis Center
Sun 09:07:33 PM 40.0939 -96.7000 74° East 500 575 36,900  Level Minneapolis Center
Sun 09:08:35 PM 40.1322 -96.5264 74° East 498 573 36,900  Level Minneapolis Center
Sun 09:09:37 PM 40.1697 -96.3528 74° East 499 574 36,900  Level Minneapolis Center
Sun 09:10:38 PM 40.2061 -96.1806 74° East 496 571 36,900  Level Minneapolis Center
Sun 09:11:40 PM 40.2386 -96.0069 76° East 494 568 36,900  Level Minneapolis Center
Sun 09:12:42 PM 40.2706 -95.8289 77° East 499 574 36,900  Level Minneapolis Center
Sun 09:13:43 PM 40.3094 -95.6203 76° East 496 571 36,900  Level Minneapolis Center
Sun 09:14:45 PM 40.3414 -95.4450 76° East 497 572 36,900  Level Minneapolis Center
Sun 09:15:47 PM 40.3742 -95.2686 76° East 499 574 36,900  Level Minneapolis Center
Sun 09:16:48 PM 40.4050 -95.0925 77° East 499 574 36,900  Level Minneapolis Center
Sun 09:17:50 PM 40.4369 -94.9158 77° East 499 574 36,900  Level Minneapolis Center
Sun 09:18:51 PM 40.4675 -94.7392 77° East 499 574 36,900  Level Minneapolis Center
Sun 09:19:53 PM 40.5014 -94.5356 78° East 502 578 36,900  Level Minneapolis Center
Sun 09:20:55 PM 40.5319 -94.3569 77° East 504 580 36,900  Level Minneapolis Center
Sun 09:21:56 PM 40.5619 -94.1792 77° East 504 580 36,900  Level Minneapolis Center
Sun 09:22:58 PM 40.5931 -94.0003 77° East 504 580 36,900  Level Minneapolis Center
Sun 09:23:59 PM 40.6194 -93.8231 79° East 500 575 36,900  Level Minneapolis Center
Sun 09:25:01 PM 40.6464 -93.6450 79° East 498 573 36,900  Level Minneapolis Center
Sun 09:26:02 PM 40.6775 -93.4342 79° East 495 570 36,900  Level Minneapolis Center
Sun 09:27:03 PM 40.7008 -93.2583 80° East 491 565 36,900  Level Minneapolis Center
Sun 09:28:05 PM 40.7258 -93.0814 79° East 492 566 36,900  Level Minneapolis Center
Sun 09:29:06 PM 40.7506 -92.9056 79° East 491 565 36,900  Level Minneapolis Center
Sun 09:30:08 PM 40.7744 -92.7297 80° East 488 562 36,900  Level Minneapolis Center
Sun 09:31:09 PM 40.7989 -92.5522 80° East 490 564 36,900  Level Minneapolis Center
Sun 09:32:10 PM 40.8231 -92.3742 80° East 492 566 36,900  Level Minneapolis Center
Sun 09:33:12 PM 40.8464 -92.1969 80° East 493 567 36,900  Level Minneapolis Center
Sun 09:34:13 PM 40.8692 -92.0186 80° East 494 568 36,900  Level Minneapolis Center
Sun 09:35:14 PM 40.8969 -91.8103 80° East 487 560 36,900  Level Minneapolis Center
Sun 09:36:22 PM 40.9186 -91.6378 81° East 481 554 36,900  Level Chicago Center
Sun 09:37:24 PM 40.9403 -91.4639 81° East 480 552 36,900  Level Chicago Center
Sun 09:38:26 PM 40.9656 -91.2747 80° East 477 549 36,900  Level Chicago Center
Sun 09:39:28 PM 40.9858 -91.1003 81° East 478 550 36,900  Level Chicago Center
Sun 09:40:29 PM 41.0078 -90.9250 81° East 482 555 36,900  Level Chicago Center
Sun 09:41:31 PM 41.0283 -90.7497 81° East 481 554 36,900  Level Chicago Center
Sun 09:42:33 PM 41.0494 -90.5739 81° East 481 554 36,900 -49 Level Chicago Center
Sun 09:43:34 PM 41.0750 -90.3614 81° East 483 556 36,800 -537 Descending Chicago Center
Sun 09:44:36 PM 41.0947 -90.1856 81° East 483 556 35,800 -878 Descending Chicago Center
Sun 09:45:37 PM 41.1139 -90.0125 82° East 476 548 35,000 -390 Descending Chicago Center
Sun 09:46:39 PM 41.1331 -89.8403 82° East 472 543 35,000  Level Chicago Center
Sun 09:47:40 PM 41.1522 -89.6714 81° East 462 532 35,000  Level Chicago Center
Sun 09:48:42 PM 41.1875 -89.5039 74° East 467 537 35,000  Level Chicago Center
Sun 09:49:43 PM 41.2372 -89.3436 68° East 467 537 35,000  Level Chicago Center
Sun 09:50:45 PM 41.2836 -89.1908 68° East 468 539 35,000  Level Chicago Center
Sun 09:51:47 PM 41.3408 -89.0003 68° East 464 534 35,000  Level Chicago Center
Sun 09:52:48 PM 41.3906 -88.8411 67° East 465 535 35,000  Level Chicago Center
Sun 09:53:50 PM 41.4378 -88.6817 68° East 464 534 35,000  Level Chicago Center
Sun 09:54:51 PM 41.4850 -88.5217 68° East 463 533 35,000  Level Chicago Center
Sun 09:55:53 PM 41.5331 -88.3614 68° East 463 533 35,000  Level Chicago Center
Sun 09:56:54 PM 41.5614 -88.1933 77° East 464 534 35,000  Level Chicago Center
Sun 09:57:55 PM 41.5822 -88.0192 81° East 465 535 35,000 -341 Level Chicago Center
Sun 09:58:57 PM 41.6022 -87.8461 81° East 466 536 34,300 -780 Descending Chicago Center
Sun 09:59:58 PM 41.6219 -87.6717 81° East 472 543 33,400 -634 Descending Chicago Center
Sun 10:01:00 PM 41.6414 -87.4967 81° East 475 547 33,000 -195 Descending Chicago Center
Sun 10:02:01 PM 41.6644 -87.2889 81° East 472 543 33,000  Level Chicago Center
Sun 10:03:03 PM 41.6833 -87.1150 82° East 473 544 33,000  Level Chicago Center
Sun 10:04:04 PM 41.7017 -86.9419 82° East 472 543 33,000  Level Chicago Center
Sun 10:05:06 PM 41.7200 -86.7683 82° East 473 544 33,000  Level Chicago Center
Sun 10:06:07 PM 41.7431 -86.5894 80° East 470 541 33,000  Level Chicago Center
Sun 10:07:08 PM 41.7758 -86.4183 76° East 472 543 33,000 -244 Level Chicago Center
Sun 10:08:10 PM 41.8078 -86.2486 76° East 471 542 32,500 -1,756 Descending Chicago Center
Sun 10:09:11 PM 41.8375 -86.0786 77° East 469 540 29,400 -3,000 Descending Chicago Center
Sun 10:10:12 PM 41.8678 -85.9083 77° East 468 539 26,400 -2,634 Descending Chicago Center
Sun 10:11:14 PM 41.8967 -85.7422 77° East 458 527 24,000 -1,463 Descending Chicago Center
Sun 10:12:15 PM 41.9258 -85.5792 76° East 449 517 23,400 -787 Descending Chicago Center
Sun 10:13:16 PM 41.9542 -85.4169 77° East 443 510 22,400 -990 Descending Chicago Center
Sun 10:13:52 PM 41.9731 -85.3122 76° East 451 519 21,800 -1,500 Descending Cleveland Center
Sun 10:14:52 PM 41.9978 -85.1606 78° East 434 499 20,000 -1,400 Descending Cleveland Center
Sun 10:15:52 PM 42.0225 -85.0083 78° East 425 489 19,000 -500 Descending Cleveland Center
Sun 10:16:52 PM 42.0364 -84.8611 83° East 408 470 19,000  Level Cleveland Center
Sun 10:17:52 PM 41.9981 -84.7133 109° East 396 456 19,000  Level Cleveland Center
Sun 10:18:52 PM 41.9617 -84.5656 108° East 401 461 19,000 -250 Level Cleveland Center
Sun 10:19:52 PM 41.9228 -84.4208 110° East 406 467 18,500 -878 Descending Cleveland Center
Sun 10:20:14 PM 41.9061 -84.3556 109° East 408 470 17,800 -2,200 Descending Cleveland Center
Sun 10:20:52 PM 41.8819 -84.2678 110° East 406 467 16,300 -2,597 Descending Cleveland Center
Sun 10:21:21 PM 41.8692 -84.2083 106° East 395 455 14,900 -2,800 Descending Cleveland Center
Sun 10:21:52 PM 41.8486 -84.1347 111° Southeast 394 453 13,500 -2,545 Descending Cleveland Center
Sun 10:22:27 PM 41.8344 -84.0558 104° East 364 419 12,100 -1,400 Descending Cleveland Center
Sun 10:22:52 PM 41.8442 -84.0033 76° East 355 409 12,100 -218 Level Cleveland Center
Sun 10:23:22 PM 41.8772 -83.9522 49° Northeast 359 413 11,900  Descending Cleveland Center
Sun 10:23:52 PM 41.9058 -83.8978 55° Northeast 327 376 12,100 -98 Climbing Cleveland Center
Sun 10:24:23 PM 41.9447 -83.8525 41° Northeast 358 412 11,800 -400 Descending Cleveland Center
Sun 10:24:52 PM 41.9769 -83.8150 41° Northeast 327 376 11,700 -444 Descending Cleveland Center
Sun 10:25:17 PM 42.0092 -83.7858 34° Northeast 307 353 11,400 -800 Descending Cleveland Center
Sun 10:25:52 PM 42.0414 -83.7456 43° Northeast 309 356 10,900 -1,279 Descending Cleveland Center
Sun 10:26:18 PM 42.0714 -83.7189 33° Northeast 277 319 10,100 -1,500 Descending Cleveland Center
Sun 10:26:52 PM 42.1036 -83.6786 43° Northeast 294 338 9,400 -1,343 Descending Cleveland Center
Sun 10:27:25 PM 42.1358 -83.6467 36° Northeast 276 318 8,600 -1,400 Descending Cleveland Center
Sun 10:27:52 PM 42.1617 -83.6169 40° Northeast 283 326 8,000 -1,700 Descending Cleveland Center
Sun 10:28:25 PM 42.2003 -83.5797 36° Northeast 273 314 6,900 -1,500 Descending Cleveland Center
Sun 10:28:52 PM 42.2153 -83.5578 47° Northeast 277 319 6,500 -984 Descending Cleveland Center
Sun 10:29:26 PM 42.2600 -83.5178 33° Northeast 268 308 5,900 -500 Descending Cleveland Center
Sun 10:29:52 PM 42.2750 -83.5017 38° Northeast 271 312 6,000  Climbing Cleveland Center
Sun 10:30:21 PM 42.3114 -83.4697 33° Northeast 230 265 5,900 -202 Descending Cleveland Center
Sun 10:31:21 PM 42.3606 -83.4214 36° Northeast 230 265 5,700 -567 Descending Cleveland Center
Sun 10:32:28 PM 42.3789 -83.3492 71° East 187 215 4,700 -896 Descending Cleveland Center

Login

Don't have an account? Register now (free) for customized features, flight alerts, and more!